Time;durP1;ratioP1;P1;durP2;ratioP2;P2;SDS_P1;SDS_P2;PMS_P1;PMS_P2;Temp;Humidity;BMP_temperature;BMP_pressure;BME280_temperature;BME280_humidity;BME280_pressure;Samples;Min_cycle;Max_cycle;Signal;HPM_P1;HPM_P2
2024/02/13 00:01:47;;;;;;;63.50;34.50;;;;;;;-128.00;-1.00;-1.00;103239;1253;1003837;-79
2024/02/13 00:04:14;;;;;;;77.30;40.10;;;;;;;-128.00;-1.00;-1.00;103190;1253;1004213;-75
2024/02/13 00:06:42;;;;;;;73.00;37.00;;;;;;;-128.00;-1.00;-1.00;103131;1253;1003749;-80
2024/02/13 00:09:09;;;;;;;81.80;41.50;;;;;;;-128.00;-1.00;-1.00;103077;1253;1004755;-74
2024/02/13 00:11:35;;;;;;;69.50;39.90;;;;;;;-128.00;-1.00;-1.00;105623;1256;1004174;-79
2024/02/13 00:14:02;;;;;;;79.10;42.00;;;;;;;-128.00;-1.00;-1.00;103700;1253;1005104;-75
2024/02/13 00:16:29;;;;;;;94.40;57.30;;;;;;;-128.00;-1.00;-1.00;103266;1253;1004832;-75
2024/02/13 00:19:01;;;;;;;75.60;43.20;;;;;;;-128.00;-1.00;-1.00;103237;1253;1003483;-75
2024/02/13 00:21:27;;;;;;;76.60;44.40;;;;;;;-128.00;-1.00;-1.00;103168;1253;1046879;-75
2024/02/13 00:23:55;;;;;;;76.40;39.70;;;;;;;-128.00;-1.00;-1.00;103028;1253;1004574;-79
2024/02/13 00:26:22;;;;;;;65.10;36.60;;;;;;;-128.00;-1.00;-1.00;103000;1253;1004692;-79
2024/02/13 00:28:51;;;;;;;;;;;;;;;-128.00;-1.00;-1.00;105616;1253;1059571;-77
2024/02/13 00:31:17;;;;;;;66.50;35.00;;;;;;;-128.00;-1.00;-1.00;105606;1256;1004025;-79
2024/02/13 00:33:44;;;;;;;63.70;38.70;;;;;;;-128.00;-1.00;-1.00;105645;1253;1004033;-75
2024/02/13 00:36:12;;;;;;;68.90;38.60;;;;;;;-128.00;-1.00;-1.00;103349;1253;1004368;-75
2024/02/13 00:38:40;;;;;;;45.00;24.30;;;;;;;-128.00;-1.00;-1.00;103082;1253;1005408;-79
2024/02/13 00:41:06;;;;;;;37.00;20.10;;;;;;;-128.00;-1.00;-1.00;103185;1253;1004716;-79
2024/02/13 00:43:35;;;;;;;39.50;20.50;;;;;;;-128.00;-1.00;-1.00;103179;1253;1004439;-79
2024/02/13 00:46:04;;;;;;;33.60;17.70;;;;;;;-128.00;-1.00;-1.00;103253;1253;1005995;-75
2024/02/13 00:48:31;;;;;;;29.30;15.40;;;;;;;-128.00;-1.00;-1.00;103233;1253;1063122;-75
2024/02/13 00:50:58;;;;;;;27.20;14.90;;;;;;;-128.00;-1.00;-1.00;103181;1253;1004985;-75
2024/02/13 00:53:24;;;;;;;29.80;14.30;;;;;;;-128.00;-1.00;-1.00;103102;1253;1004181;-81
2024/02/13 00:55:51;;;;;;;31.90;15.80;;;;;;;-128.00;-1.00;-1.00;103199;1253;1004434;-79
2024/02/13 00:58:18;;;;;;;29.70;15.30;;;;;;;-128.00;-1.00;-1.00;103211;1253;1004737;-75
2024/02/13 01:00:45;;;;;;;29.20;14.70;;;;;;;-128.00;-1.00;-1.00;103218;1253;1004541;-79
2024/02/13 01:03:11;;;;;;;25.70;15.00;;;;;;;-128.00;-1.00;-1.00;103183;1256;1005262;-75
2024/02/13 01:05:40;;;;;;;26.00;14.50;;;;;;;-128.00;-1.00;-1.00;103216;1253;1005702;-75
2024/02/13 01:08:07;;;;;;;20.10;11.80;;;;;;;-128.00;-1.00;-1.00;103141;1253;1046587;-79
2024/02/13 01:10:34;;;;;;;28.00;13.00;;;;;;;-128.00;-1.00;-1.00;105628;1253;1004052;-75
2024/02/13 01:13:00;;;;;;;24.50;12.30;;;;;;;-128.00;-1.00;-1.00;105601;1253;1004691;-79
2024/02/13 01:15:28;;;;;;;17.40;10.70;;;;;;;-128.00;-1.00;-1.00;105548;1253;1004320;-79
2024/02/13 01:17:54;;;;;;;24.70;12.10;;;;;;;-128.00;-1.00;-1.00;105443;1253;1004403;-75
2024/02/13 01:20:23;;;;;;;21.80;11.90;;;;;;;-128.00;-1.00;-1.00;105537;1253;1003724;-75
2024/02/13 01:22:50;;;;;;;19.30;11.50;;;;;;;-128.00;-1.00;-1.00;105646;1253;1047010;-75
2024/02/13 01:25:17;;;;;;;20.70;11.30;;;;;;;-128.00;-1.00;-1.00;105628;1253;1003770;-75
2024/02/13 01:27:43;;;;;;;21.40;10.20;;;;;;;-128.00;-1.00;-1.00;105010;1253;1004678;-79
2024/02/13 01:30:13;;;;;;;15.30;9.60;;;;;;;-128.00;-1.00;-1.00;103241;1253;1005048;-75
2024/02/13 01:32:40;;;;;;;20.20;10.80;;;;;;;-128.00;-1.00;-1.00;103171;1257;1044371;-75
2024/02/13 01:35:07;;;;;;;20.60;12.00;;;;;;;-128.00;-1.00;-1.00;103142;1258;1004223;-79
2024/02/13 01:37:34;;;;;;;21.80;10.50;;;;;;;-128.00;-1.00;-1.00;103198;1253;1004018;-75
2024/02/13 01:40:01;;;;;;;22.90;11.00;;;;;;;-128.00;-1.00;-1.00;103189;1253;1004113;-75
2024/02/13 01:42:28;;;;;;;16.70;9.60;;;;;;;-128.00;-1.00;-1.00;103151;1253;1003943;-75
2024/02/13 01:44:54;;;;;;;19.10;10.90;;;;;;;-128.00;-1.00;-1.00;103208;1253;1004467;-79
2024/02/13 01:47:21;;;;;;;23.70;11.00;;;;;;;-128.00;-1.00;-1.00;103189;1253;1005169;-79
2024/02/13 01:49:48;;;;;;;22.10;10.60;;;;;;;-128.00;-1.00;-1.00;103196;1253;1004993;-79
2024/02/13 01:52:14;;;;;;;22.50;11.10;;;;;;;-128.00;-1.00;-1.00;103222;1257;1004524;-79
2024/02/13 01:54:41;;;;;;;26.30;11.70;;;;;;;-128.00;-1.00;-1.00;103167;1253;1004090;-75
2024/02/13 01:57:08;;;;;;;19.30;10.90;;;;;;;-128.00;-1.00;-1.00;103161;1253;1004539;-75
2024/02/13 01:59:38;;;;;;;21.70;11.30;;;;;;;-128.00;-1.00;-1.00;103208;1253;1003831;-79
2024/02/13 02:02:08;;;;;;;23.20;12.20;;;;;;;-128.00;-1.00;-1.00;103197;1253;1062647;-79
2024/02/13 02:04:36;;;;;;;21.90;10.60;;;;;;;-128.00;-1.00;-1.00;104641;1253;1058507;-76
2024/02/13 02:07:03;;;;;;;21.20;10.20;;;;;;;-128.00;-1.00;-1.00;105449;1253;1004040;-75
2024/02/13 02:09:33;;;;;;;20.00;10.40;;;;;;;-128.00;-1.00;-1.00;104771;1253;1003878;-79
2024/02/13 02:12:00;;;;;;;23.00;11.00;;;;;;;-128.00;-1.00;-1.00;103299;1255;1047309;-79
2024/02/13 02:14:27;;;;;;;19.00;9.80;;;;;;;-128.00;-1.00;-1.00;103298;1253;1005303;-75
2024/02/13 02:16:54;;;;;;;19.60;9.60;;;;;;;-128.00;-1.00;-1.00;103299;1253;1004097;-75
2024/02/13 02:19:22;;;;;;;19.00;9.30;;;;;;;-128.00;-1.00;-1.00;103284;1253;1004499;-79
2024/02/13 02:21:49;;;;;;;15.50;8.80;;;;;;;-128.00;-1.00;-1.00;103288;1253;1004521;-79
2024/02/13 02:24:15;;;;;;;16.70;8.90;;;;;;;-128.00;-1.00;-1.00;103217;1253;1005319;-79
2024/02/13 02:26:42;;;;;;;17.90;9.40;;;;;;;-128.00;-1.00;-1.00;103183;1252;1005208;-79
2024/02/13 02:29:08;;;;;;;20.50;10.00;;;;;;;-128.00;-1.00;-1.00;104424;1252;1004585;-74
2024/02/13 02:31:37;;;;;;;21.10;9.20;;;;;;;-128.00;-1.00;-1.00;105676;1253;1004586;-79
2024/02/13 02:34:03;;;;;;;18.40;8.80;;;;;;;-128.00;-1.00;-1.00;105551;1252;1044870;-74
2024/02/13 02:36:30;;;;;;;18.40;9.50;;;;;;;-128.00;-1.00;-1.00;103356;1251;1004051;-75
2024/02/13 02:38:56;;;;;;;15.40;8.60;;;;;;;-128.00;-1.00;-1.00;103221;1252;1003893;-74
2024/02/13 02:41:22;;;;;;;17.90;10.00;;;;;;;-128.00;-1.00;-1.00;103288;1253;1004081;-80
2024/02/13 02:43:49;;;;;;;16.40;8.40;;;;;;;-128.00;-1.00;-1.00;103335;1253;1004631;-81
2024/02/13 02:46:15;;;;;;;14.40;8.80;;;;;;;-128.00;-1.00;-1.00;103237;1252;1004534;-75
2024/02/13 02:48:42;;;;;;;14.10;8.90;;;;;;;-128.00;-1.00;-1.00;103242;1253;1004905;-79
2024/02/13 02:51:09;;;;;;;16.80;9.60;;;;;;;-128.00;-1.00;-1.00;103220;1252;1005437;-79
2024/02/13 02:53:35;;;;;;;22.90;10.60;;;;;;;-128.00;-1.00;-1.00;103278;1253;1004754;-79
2024/02/13 02:56:02;;;;;;;22.70;10.60;;;;;;;-128.00;-1.00;-1.00;103270;1253;1004408;-75
2024/02/13 02:58:28;;;;;;;17.10;10.10;;;;;;;-128.00;-1.00;-1.00;103279;1253;1005815;-76
2024/02/13 03:00:54;;;;;;;14.20;8.10;;;;;;;-128.00;-1.00;-1.00;103288;1253;1005118;-79
2024/02/13 03:03:21;;;;;;;21.90;9.30;;;;;;;-128.00;-1.00;-1.00;103273;1256;1004419;-79
2024/02/13 03:05:48;;;;;;;16.30;8.70;;;;;;;-128.00;-1.00;-1.00;103292;1253;1004760;-75
2024/02/13 03:08:15;;;;;;;14.70;8.40;;;;;;;-128.00;-1.00;-1.00;103271;1254;1003932;-79
2024/02/13 03:10:42;;;;;;;14.70;8.60;;;;;;;-128.00;-1.00;-1.00;103251;1253;1003440;-79
2024/02/13 03:13:09;;;;;;;15.40;8.70;;;;;;;-128.00;-1.00;-1.00;103322;1253;1004257;-79
2024/02/13 03:15:35;;;;;;;15.20;9.10;;;;;;;-128.00;-1.00;-1.00;103259;1256;1004042;-79
2024/02/13 03:18:03;;;;;;;15.40;8.80;;;;;;;-128.00;-1.00;-1.00;103297;1253;1004736;-79
2024/02/13 03:20:30;;;;;;;17.10;8.60;;;;;;;-128.00;-1.00;-1.00;104029;1253;1005068;-75
2024/02/13 03:22:56;;;;;;;13.20;8.40;;;;;;;-128.00;-1.00;-1.00;103229;1252;1004200;-79
2024/02/13 03:25:23;;;;;;;22.00;9.90;;;;;;;-128.00;-1.00;-1.00;103237;1253;1004242;-75
2024/02/13 03:27:49;;;;;;;17.40;9.90;;;;;;;-128.00;-1.00;-1.00;103264;1253;1004544;-79
2024/02/13 03:30:16;;;;;;;16.30;9.00;;;;;;;-128.00;-1.00;-1.00;103255;1252;1005151;-75
2024/02/13 03:32:44;;;;;;;20.80;9.50;;;;;;;-128.00;-1.00;-1.00;103162;1253;1004952;-75
2024/02/13 03:35:10;;;;;;;17.30;8.30;;;;;;;-128.00;-1.00;-1.00;105608;1253;1004442;-79
2024/02/13 03:37:37;;;;;;;16.00;8.10;;;;;;;-128.00;-1.00;-1.00;105691;1253;1005377;-79
2024/02/13 03:40:06;;;;;;;11.30;6.70;;;;;;;-128.00;-1.00;-1.00;105673;1251;1004669;-79
2024/02/13 03:42:33;;;;;;;18.10;8.20;;;;;;;-128.00;-1.00;-1.00;105652;1253;1060343;-75
2024/02/13 03:44:59;;;;;;;16.40;8.00;;;;;;;-128.00;-1.00;-1.00;105629;1253;1003764;-79
2024/02/13 03:47:26;;;;;;;13.40;7.30;;;;;;;-128.00;-1.00;-1.00;105662;1253;1004466;-75
2024/02/13 03:49:52;;;;;;;13.30;7.80;;;;;;;-128.00;-1.00;-1.00;105678;1253;1003602;-75
2024/02/13 03:52:19;;;;;;;16.10;8.00;;;;;;;-128.00;-1.00;-1.00;105653;1253;1003905;-75
2024/02/13 03:54:46;;;;;;;13.20;8.00;;;;;;;-128.00;-1.00;-1.00;103624;1253;1003771;-75
2024/02/13 03:57:12;;;;;;;16.60;8.60;;;;;;;-128.00;-1.00;-1.00;103186;1253;1004750;-79
2024/02/13 03:59:38;;;;;;;21.70;8.90;;;;;;;-128.00;-1.00;-1.00;103276;1253;1004027;-79
2024/02/13 04:02:07;;;;;;;15.70;9.50;;;;;;;-128.00;-1.00;-1.00;103680;1253;1004382;-79
2024/02/13 04:04:35;;;;;;;20.10;10.80;;;;;;;-128.00;-1.00;-1.00;103656;1253;1061454;-75
2024/02/13 04:07:04;;;;;;;37.20;18.70;;;;;;;-128.00;-1.00;-1.00;103787;1253;1004155;-79
2024/02/13 04:09:31;;;;;;;34.00;17.40;;;;;;;-128.00;-1.00;-1.00;103465;1252;1059016;-79
2024/02/13 04:11:58;;;;;;;32.70;18.40;;;;;;;-128.00;-1.00;-1.00;103261;1253;1003912;-79
2024/02/13 04:14:25;;;;;;;33.30;20.00;;;;;;;-128.00;-1.00;-1.00;103290;1254;1004113;-75
2024/02/13 04:16:52;;;;;;;30.20;14.20;;;;;;;-128.00;-1.00;-1.00;103300;1253;1004418;-74
2024/02/13 04:19:18;;;;;;;31.20;14.80;;;;;;;-128.00;-1.00;-1.00;103282;1253;1004041;-75
2024/02/13 04:21:45;;;;;;;26.70;15.30;;;;;;;-128.00;-1.00;-1.00;103242;1253;1005207;-79
2024/02/13 04:24:11;;;;;;;15.50;9.70;;;;;;;-128.00;-1.00;-1.00;103266;1257;1003975;-79
2024/02/13 04:26:39;;;;;;;24.80;11.60;;;;;;;-128.00;-1.00;-1.00;103269;1253;1003806;-74
2024/02/13 04:29:05;;;;;;;25.40;14.10;;;;;;;-128.00;-1.00;-1.00;105670;1253;1004381;-75
2024/02/13 04:31:32;;;;;;;26.50;13.80;;;;;;;-128.00;-1.00;-1.00;105683;1253;1004056;-79
2024/02/13 04:33:58;;;;;;;27.70;13.30;;;;;;;-128.00;-1.00;-1.00;105630;1253;1004562;-75
2024/02/13 04:36:25;;;;;;;28.30;13.90;;;;;;;-128.00;-1.00;-1.00;105697;1252;1004441;-79
2024/02/13 04:38:52;;;;;;;22.90;12.60;;;;;;;-128.00;-1.00;-1.00;104548;1256;1004460;-74
2024/02/13 04:41:18;;;;;;;22.10;12.30;;;;;;;-128.00;-1.00;-1.00;103237;1256;1005057;-75
2024/02/13 04:43:45;;;;;;;34.50;13.20;;;;;;;-128.00;-1.00;-1.00;103276;1253;1004263;-75
2024/02/13 04:46:11;;;;;;;31.90;14.40;;;;;;;-128.00;-1.00;-1.00;103273;1256;1004337;-79
2024/02/13 04:48:38;;;;;;;24.10;11.50;;;;;;;-128.00;-1.00;-1.00;103254;1254;1005050;-78
2024/02/13 04:51:05;;;;;;;21.20;10.10;;;;;;;-128.00;-1.00;-1.00;103245;1253;1004432;-79
2024/02/13 04:53:31;;;;;;;28.00;12.50;;;;;;;-128.00;-1.00;-1.00;103240;1254;1004662;-75
2024/02/13 04:55:58;;;;;;;29.80;13.30;;;;;;;-128.00;-1.00;-1.00;103279;1253;1004690;-79
2024/02/13 04:58:29;;;;;;;19.90;9.90;;;;;;;-128.00;-1.00;-1.00;103252;1256;1004613;-78
2024/02/13 05:01:03;;;;;;;24.70;11.70;;;;;;;-128.00;-1.00;-1.00;103258;1254;1044884;-79
2024/02/13 05:03:39;;;;;;;23.80;9.00;;;;;;;-128.00;-1.00;-1.00;103262;1256;1046553;-79
2024/02/13 05:08:53;;;;;;;25.90;10.70;;;;;;;-128.00;-1.00;-1.00;103288;1252;1057196;-74
2024/02/13 05:11:20;;;;;;;34.20;13.60;;;;;;;-128.00;-1.00;-1.00;103381;1254;1059859;-80
2024/02/13 05:13:46;;;;;;;25.00;12.80;;;;;;;-128.00;-1.00;-1.00;103330;1256;1004335;-79
2024/02/13 05:16:12;;;;;;;31.40;14.60;;;;;;;-128.00;-1.00;-1.00;103329;1256;1004808;-75
2024/02/13 05:18:39;;;;;;;23.80;13.20;;;;;;;-128.00;-1.00;-1.00;103305;1252;1003919;-79
2024/02/13 05:21:05;;;;;;;32.90;16.30;;;;;;;-128.00;-1.00;-1.00;103291;1253;1004452;-75
2024/02/13 05:23:32;;;;;;;40.20;15.40;;;;;;;-128.00;-1.00;-1.00;103162;1253;1004861;-74
2024/02/13 05:25:58;;;;;;;26.60;15.00;;;;;;;-128.00;-1.00;-1.00;103293;1256;1004277;-78
2024/02/13 05:28:25;;;;;;;31.20;16.10;;;;;;;-128.00;-1.00;-1.00;103316;1254;1004380;-79
2024/02/13 05:30:52;;;;;;;31.40;16.70;;;;;;;-128.00;-1.00;-1.00;103252;1257;1004026;-75
2024/02/13 05:33:18;;;;;;;34.60;16.40;;;;;;;-128.00;-1.00;-1.00;103214;1254;1003866;-79
2024/02/13 05:35:46;;;;;;;39.10;16.80;;;;;;;-128.00;-1.00;-1.00;103264;1253;1003927;-74
2024/02/13 05:38:12;;;;;;;38.70;20.10;;;;;;;-128.00;-1.00;-1.00;103239;1256;1003760;-74
2024/02/13 05:40:42;;;;;;;33.70;22.70;;;;;;;-128.00;-1.00;-1.00;103231;1254;1005136;-74
2024/02/13 05:43:11;;;;;;;39.40;23.10;;;;;;;-128.00;-1.00;-1.00;103173;1254;1064794;-74
2024/02/13 05:45:37;;;;;;;25.40;15.40;;;;;;;-128.00;-1.00;-1.00;103053;1256;1058780;-79
2024/02/13 05:48:04;;;;;;;24.50;14.10;;;;;;;-128.00;-1.00;-1.00;103247;1254;1004410;-76
2024/02/13 05:50:30;;;;;;;34.40;15.40;;;;;;;-128.00;-1.00;-1.00;103222;1254;1003887;-75
2024/02/13 05:52:57;;;;;;;33.40;16.70;;;;;;;-128.00;-1.00;-1.00;103209;1254;1004065;-78
2024/02/13 05:55:23;;;;;;;29.60;14.90;;;;;;;-128.00;-1.00;-1.00;103206;1252;1005095;-78
2024/02/13 05:57:51;;;;;;;27.90;14.90;;;;;;;-128.00;-1.00;-1.00;103266;1254;1005014;-79
2024/02/13 06:00:17;;;;;;;29.00;14.60;;;;;;;-128.00;-1.00;-1.00;103281;1256;1004881;-79
2024/02/13 06:02:44;;;;;;;31.40;14.00;;;;;;;-128.00;-1.00;-1.00;103337;1257;1003952;-79
2024/02/13 06:05:10;;;;;;;35.00;20.60;;;;;;;-128.00;-1.00;-1.00;103543;1254;1004653;-75
2024/02/13 06:07:36;;;;;;;26.40;14.50;;;;;;;-128.00;-1.00;-1.00;103489;1256;1004295;-78
2024/02/13 06:10:04;;;;;;;22.00;13.80;;;;;;;-128.00;-1.00;-1.00;103321;1254;1004927;-75
2024/02/13 06:12:30;;;;;;;35.40;21.70;;;;;;;-128.00;-1.00;-1.00;103349;1256;1005163;-75
2024/02/13 06:14:57;;;;;;;47.80;27.90;;;;;;;-128.00;-1.00;-1.00;103332;1253;1004608;-79
2024/02/13 06:17:24;;;;;;;31.30;17.30;;;;;;;-128.00;-1.00;-1.00;105521;1253;1004562;-75
2024/02/13 06:19:50;;;;;;;29.40;18.40;;;;;;;-128.00;-1.00;-1.00;105639;1255;1004043;-75
2024/02/13 06:22:17;;;;;;;38.10;25.60;;;;;;;-128.00;-1.00;-1.00;105570;1253;1004803;-75
2024/02/13 06:24:44;;;;;;;33.20;22.60;;;;;;;-128.00;-1.00;-1.00;105546;1254;1003774;-79
2024/02/13 06:27:10;;;;;;;20.10;12.20;;;;;;;-128.00;-1.00;-1.00;105619;1256;1004585;-79
2024/02/13 06:29:37;;;;;;;23.10;10.20;;;;;;;-128.00;-1.00;-1.00;105621;1252;1004900;-79
2024/02/13 06:32:03;;;;;;;18.30;11.80;;;;;;;-128.00;-1.00;-1.00;105662;1254;1004682;-74
2024/02/13 06:34:30;;;;;;;20.90;11.70;;;;;;;-128.00;-1.00;-1.00;105625;1253;1004443;-75
2024/02/13 06:36:56;;;;;;;18.10;10.40;;;;;;;-128.00;-1.00;-1.00;105606;1254;1004788;-78
2024/02/13 06:39:25;;;;;;;18.80;11.30;;;;;;;-128.00;-1.00;-1.00;105603;1254;1003974;-79
2024/02/13 06:41:51;;;;;;;20.80;13.10;;;;;;;-128.00;-1.00;-1.00;105637;1254;1047327;-74
2024/02/13 06:44:22;;;;;;;23.00;12.20;;;;;;;-128.00;-1.00;-1.00;105619;1253;1004158;-79
2024/02/13 06:46:48;;;;;;;25.50;13.40;;;;;;;-128.00;-1.00;-1.00;105608;1254;1058963;-78
2024/02/13 06:49:15;;;;;;;19.20;11.90;;;;;;;-128.00;-1.00;-1.00;105649;1252;1003673;-79
2024/02/13 06:51:41;;;;;;;23.90;15.80;;;;;;;-128.00;-1.00;-1.00;105548;1253;1003785;-75
2024/02/13 06:54:07;;;;;;;24.30;14.20;;;;;;;-128.00;-1.00;-1.00;105603;1254;1004179;-74
2024/02/13 06:56:38;;;;;;;23.30;14.20;;;;;;;-128.00;-1.00;-1.00;105648;1254;1004675;-79
2024/02/13 06:59:07;;;;;;;23.50;15.10;;;;;;;-128.00;-1.00;-1.00;105653;1254;1057272;-75
2024/02/13 07:01:35;;;;;;;26.30;15.40;;;;;;;-128.00;-1.00;-1.00;105606;1253;1059443;-74
2024/02/13 07:04:02;;;;;;;27.30;16.80;;;;;;;-128.00;-1.00;-1.00;105550;1254;1004673;-79
2024/02/13 07:06:28;;;;;;;27.00;19.40;;;;;;;-128.00;-1.00;-1.00;105490;1254;1003902;-74
2024/02/13 07:08:55;;;;;;;37.70;24.00;;;;;;;-128.00;-1.00;-1.00;105571;1254;1005463;-74
2024/02/13 07:11:22;;;;;;;41.60;25.70;;;;;;;-128.00;-1.00;-1.00;105570;1253;1004113;-79
2024/02/13 07:13:48;;;;;;;60.50;33.10;;;;;;;-128.00;-1.00;-1.00;104625;1253;1004269;-79
2024/02/13 07:16:14;;;;;;;149.30;70.70;;;;;;;-128.00;-1.00;-1.00;105614;1251;1004955;-79
2024/02/13 07:18:42;;;;;;;122.50;64.80;;;;;;;-128.00;-1.00;-1.00;105538;1254;1003452;-79
2024/02/13 07:21:10;;;;;;;96.40;52.60;;;;;;;-128.00;-1.00;-1.00;105532;1253;1004257;-79
2024/02/13 07:23:37;;;;;;;85.00;46.30;;;;;;;-128.00;-1.00;-1.00;105604;1254;1058559;-79
2024/02/13 07:26:03;;;;;;;61.50;35.60;;;;;;;-128.00;-1.00;-1.00;105610;1252;1003743;-75
2024/02/13 07:28:31;;;;;;;75.00;42.40;;;;;;;-128.00;-1.00;-1.00;105642;1254;1004228;-75
2024/02/13 07:30:57;;;;;;;44.40;24.00;;;;;;;-128.00;-1.00;-1.00;105129;1254;1005258;-74
2024/02/13 07:33:24;;;;;;;50.00;28.40;;;;;;;-128.00;-1.00;-1.00;103585;1254;1004599;-79
2024/02/13 07:35:50;;;;;;;36.70;22.10;;;;;;;-128.00;-1.00;-1.00;103866;1254;1004323;-74
2024/02/13 07:38:17;;;;;;;33.70;21.50;;;;;;;-128.00;-1.00;-1.00;103565;1256;1004417;-75
2024/02/13 07:40:44;;;;;;;31.50;19.10;;;;;;;-128.00;-1.00;-1.00;103720;1256;1004969;-79
2024/02/13 07:43:12;;;;;;;31.90;18.50;;;;;;;-128.00;-1.00;-1.00;103658;1254;1004233;-75
2024/02/13 07:45:39;;;;;;;30.10;18.50;;;;;;;-128.00;-1.00;-1.00;103854;1254;1005118;-79
2024/02/13 07:48:09;;;;;;;33.40;19.60;;;;;;;-128.00;-1.00;-1.00;103592;1253;1004546;-79
2024/02/13 07:50:37;;;;;;;35.20;20.30;;;;;;;-128.00;-1.00;-1.00;103744;1254;1061986;-79
2024/02/13 07:53:06;;;;;;;35.00;18.30;;;;;;;-128.00;-1.00;-1.00;103582;1254;1004639;-75
2024/02/13 07:55:36;;;;;;;28.10;16.40;;;;;;;-128.00;-1.00;-1.00;103647;1254;1049575;-74
2024/02/13 07:58:05;;;;;;;34.80;17.70;;;;;;;-128.00;-1.00;-1.00;103422;1253;1062851;-79
2024/02/13 08:00:33;;;;;;;31.40;18.40;;;;;;;-128.00;-1.00;-1.00;103581;1254;1058262;-74
2024/02/13 08:03:01;;;;;;;33.50;19.30;;;;;;;-128.00;-1.00;-1.00;103419;1253;1005469;-79
2024/02/13 08:05:33;;;;;;;32.60;16.80;;;;;;;-128.00;-1.00;-1.00;105586;1253;1004057;-79
2024/02/13 08:08:02;;;;;;;32.30;18.40;;;;;;;-128.00;-1.00;-1.00;103373;1254;1049488;-79
2024/02/13 08:10:29;;;;;;;;;;;;;;;-128.00;-1.00;-1.00;105617;1253;1062534;-79
2024/02/13 08:12:57;;;;;;;32.00;18.30;;;;;;;-128.00;-1.00;-1.00;105619;1254;1004877;-79
2024/02/13 08:15:23;;;;;;;26.90;15.80;;;;;;;-128.00;-1.00;-1.00;105607;1253;1004799;-79
2024/02/13 08:17:50;;;;;;;31.50;16.90;;;;;;;-128.00;-1.00;-1.00;105595;1254;1004863;-75
2024/02/13 08:20:16;;;;;;;25.30;14.80;;;;;;;-128.00;-1.00;-1.00;104568;1253;1004148;-74
2024/02/13 08:22:43;;;;;;;34.00;17.10;;;;;;;-128.00;-1.00;-1.00;103485;1254;1003892;-75
2024/02/13 08:25:10;;;;;;;27.50;15.90;;;;;;;-128.00;-1.00;-1.00;103476;1254;1004632;-74
2024/02/13 08:27:37;;;;;;;29.40;17.60;;;;;;;-128.00;-1.00;-1.00;103417;1254;1005173;-79
2024/02/13 08:30:09;;;;;;;24.10;15.30;;;;;;;-128.00;-1.00;-1.00;103575;1256;1003928;-79
2024/02/13 08:32:39;;;;;;;26.20;15.20;;;;;;;-128.00;-1.00;-1.00;103571;1254;1047477;-79
2024/02/13 08:35:05;;;;;;;24.30;14.80;;;;;;;-128.00;-1.00;-1.00;105574;1254;1063280;-75
2024/02/13 08:37:32;;;;;;;28.60;15.80;;;;;;;-128.00;-1.00;-1.00;105434;1254;1003785;-79
2024/02/13 08:39:58;;;;;;;22.40;13.20;;;;;;;-128.00;-1.00;-1.00;105514;1251;1005101;-75
2024/02/13 08:42:25;;;;;;;21.50;13.30;;;;;;;-128.00;-1.00;-1.00;104557;1252;1003866;-75
2024/02/13 08:44:56;;;;;;;30.20;13.60;;;;;;;-128.00;-1.00;-1.00;103245;1254;1004763;-79
2024/02/13 08:47:22;;;;;;;21.60;13.40;;;;;;;-128.00;-1.00;-1.00;103639;1253;1061891;-75
2024/02/13 08:49:49;;;;;;;24.90;16.20;;;;;;;-128.00;-1.00;-1.00;103323;1257;1004690;-74
2024/02/13 08:52:17;;;;;;;26.10;16.10;;;;;;;-128.00;-1.00;-1.00;103395;1253;1004098;-79
2024/02/13 08:54:44;;;;;;;23.50;13.60;;;;;;;-128.00;-1.00;-1.00;103354;1252;1004760;-78
2024/02/13 08:57:14;;;;;;;21.10;12.30;;;;;;;-128.00;-1.00;-1.00;103406;1254;1004450;-75
2024/02/13 08:59:41;;;;;;;38.30;18.10;;;;;;;-128.00;-1.00;-1.00;103529;1253;1062488;-79
2024/02/13 09:02:08;;;;;;;17.10;10.60;;;;;;;-128.00;-1.00;-1.00;103420;1254;1004990;-75
2024/02/13 09:04:38;;;;;;;22.30;10.80;;;;;;;-128.00;-1.00;-1.00;103320;1253;1005247;-75
2024/02/13 09:07:04;;;;;;;14.70;9.10;;;;;;;-128.00;-1.00;-1.00;103428;1254;1045412;-75
2024/02/13 09:09:32;;;;;;;24.60;14.50;;;;;;;-128.00;-1.00;-1.00;103341;1254;1006017;-76
2024/02/13 09:11:59;;;;;;;29.30;16.20;;;;;;;-128.00;-1.00;-1.00;103358;1254;1006291;-75
2024/02/13 09:14:26;;;;;;;17.90;11.20;;;;;;;-128.00;-1.00;-1.00;103259;1253;1005084;-74
2024/02/13 09:16:56;;;;;;;17.00;10.20;;;;;;;-128.00;-1.00;-1.00;103290;1253;1003978;-75
2024/02/13 09:19:22;;;;;;;18.20;11.90;;;;;;;-128.00;-1.00;-1.00;103559;1253;1047415;-75
2024/02/13 09:21:49;;;;;;;19.00;11.30;;;;;;;-128.00;-1.00;-1.00;103615;1253;1005194;-74
2024/02/13 09:24:15;;;;;;;20.90;12.20;;;;;;;-128.00;-1.00;-1.00;103542;1253;1005155;-74
2024/02/13 09:26:42;;;;;;;18.10;12.70;;;;;;;-128.00;-1.00;-1.00;103510;1256;1004208;-75
2024/02/13 09:29:08;;;;;;;17.90;9.30;;;;;;;-128.00;-1.00;-1.00;103478;1253;1004960;-79
2024/02/13 09:31:35;;;;;;;16.80;11.40;;;;;;;-128.00;-1.00;-1.00;103589;1254;1006035;-74
2024/02/13 09:34:01;;;;;;;16.80;9.30;;;;;;;-128.00;-1.00;-1.00;103588;1255;1004420;-79
2024/02/13 09:36:27;;;;;;;21.50;10.80;;;;;;;-128.00;-1.00;-1.00;103498;1253;1005001;-75
2024/02/13 09:38:54;;;;;;;18.40;11.20;;;;;;;-128.00;-1.00;-1.00;103510;1252;1004041;-74
2024/02/13 09:41:20;;;;;;;17.20;9.80;;;;;;;-128.00;-1.00;-1.00;103642;1254;1004131;-74
2024/02/13 09:43:47;;;;;;;15.00;9.60;;;;;;;-128.00;-1.00;-1.00;103562;1253;1004803;-75
2024/02/13 09:46:16;;;;;;;14.40;9.10;;;;;;;-128.00;-1.00;-1.00;103531;1254;1003791;-79
2024/02/13 09:48:47;;;;;;;12.20;7.40;;;;;;;-128.00;-1.00;-1.00;104738;1254;1061811;-79
2024/02/13 09:51:18;;;;;;;13.60;8.00;;;;;;;-128.00;-1.00;-1.00;105564;1252;1058364;-79
2024/02/13 09:53:47;;;;;;;15.40;9.80;;;;;;;-128.00;-1.00;-1.00;105603;1252;1060073;-76
2024/02/13 09:56:14;;;;;;;14.90;8.40;;;;;;;-128.00;-1.00;-1.00;105562;1252;1045461;-80
2024/02/13 09:58:41;;;;;;;13.50;7.40;;;;;;;-128.00;-1.00;-1.00;103663;1254;1004465;-74
2024/02/13 10:01:08;;;;;;;15.20;9.10;;;;;;;-128.00;-1.00;-1.00;103695;1253;1004792;-80
2024/02/13 10:03:38;;;;;;;13.40;8.10;;;;;;;-128.00;-1.00;-1.00;103570;1253;1004584;-81
2024/02/13 10:06:06;;;;;;;11.80;7.30;;;;;;;-128.00;-1.00;-1.00;103484;1253;1059868;-79
2024/02/13 10:08:37;;;;;;;13.00;8.00;;;;;;;-128.00;-1.00;-1.00;103546;1254;1004653;-74
2024/02/13 10:11:05;;;;;;;12.30;8.10;;;;;;;-128.00;-1.00;-1.00;103679;1252;1046301;-75
2024/02/13 10:13:33;;;;;;;12.20;7.10;;;;;;;-128.00;-1.00;-1.00;103581;1252;1004702;-75
2024/02/13 10:16:00;;;;;;;12.00;6.70;;;;;;;-128.00;-1.00;-1.00;103554;1253;1003873;-79
2024/02/13 10:18:27;;;;;;;12.30;6.80;;;;;;;-128.00;-1.00;-1.00;103548;1253;1004699;-75
2024/02/13 10:20:54;;;;;;;13.70;7.10;;;;;;;-128.00;-1.00;-1.00;103427;1254;1004346;-79
2024/02/13 10:23:24;;;;;;;11.50;5.50;;;;;;;-128.00;-1.00;-1.00;103359;1252;1003726;-74
2024/02/13 10:25:50;;;;;;;11.40;6.40;;;;;;;-128.00;-1.00;-1.00;103422;1253;1065338;-79
2024/02/13 10:28:19;;;;;;;14.10;5.70;;;;;;;-128.00;-1.00;-1.00;103416;1257;1004292;-74
2024/02/13 10:30:49;;;;;;;16.00;6.00;;;;;;;-128.00;-1.00;-1.00;103389;1253;1059621;-79
2024/02/13 10:33:16;;;;;;;9.30;5.70;;;;;;;-128.00;-1.00;-1.00;103464;1253;1048729;-74
2024/02/13 10:35:42;;;;;;;10.40;5.50;;;;;;;-128.00;-1.00;-1.00;103382;1253;1005514;-75
2024/02/13 10:38:09;;;;;;;9.70;6.60;;;;;;;-128.00;-1.00;-1.00;103384;1254;1004979;-79
2024/02/13 10:40:39;;;;;;;15.70;7.40;;;;;;;-128.00;-1.00;-1.00;103415;1252;1004371;-79
2024/02/13 10:43:08;;;;;;;14.00;6.40;;;;;;;-128.00;-1.00;-1.00;103329;1253;1062091;-79
2024/02/13 10:45:34;;;;;;;10.70;5.90;;;;;;;-128.00;-1.00;-1.00;103363;1252;1045157;-75
2024/02/13 10:48:17;;;;;;;13.10;6.40;;;;;;;-128.00;-1.00;-1.00;103383;1253;1004863;-79
2024/02/13 10:50:44;;;;;;;12.50;5.30;;;;;;;-128.00;-1.00;-1.00;103512;1253;1062209;-79
2024/02/13 10:53:11;;;;;;;9.00;6.10;;;;;;;-128.00;-1.00;-1.00;103397;1256;1006172;-75
2024/02/13 10:55:39;;;;;;;8.60;4.80;;;;;;;-128.00;-1.00;-1.00;103397;1252;1004294;-75
2024/02/13 10:58:06;;;;;;;9.80;5.90;;;;;;;-128.00;-1.00;-1.00;103488;1253;1045920;-80
2024/02/13 11:00:33;;;;;;;7.10;4.90;;;;;;;-128.00;-1.00;-1.00;105140;1252;1003712;-74
2024/02/13 11:02:59;;;;;;;7.40;4.40;;;;;;;-128.00;-1.00;-1.00;103388;1252;1005462;-75
2024/02/13 11:05:27;;;;;;;11.00;6.30;;;;;;;-128.00;-1.00;-1.00;103282;1253;1005477;-79
2024/02/13 11:07:54;;;;;;;8.20;4.40;;;;;;;-128.00;-1.00;-1.00;103412;1251;1003952;-79